Flight Track Log - Related Links

Times and Time Zones

All times are in EDT time to prevent confusion due to time zone crossing. See the N42HN flight status page for this flight to view local times or setup timezone preferences in your user account.

Time Position Orientation Groundspeed Altitude Reporting Facility
EDT Latitude Longitude Course Direction KTS MPH feet Rate Location/Type
Mon 07:37:29 PM 29.6142 -95.2869 181° South 177 204 2,300  Level Houston Center
Mon 07:38:17 PM 29.5972 -95.2467 116° Southeast 250 288 4,600 3,224 Climbing Houston Center
Mon 07:38:36 PM 29.6083 -95.2228 62° Northeast 227 261 5,900 3,097 Climbing Houston Center
Mon 07:39:19 PM 29.6278 -95.1864 58° Northeast 232 267 7,800 3,246 Climbing Houston Center
Mon 07:39:37 PM 29.6311 -95.1525 84° East 267 307 9,200 3,246 Climbing Houston Center
Mon 07:40:20 PM 29.6367 -95.0933 84° East 266 306 11,100 2,343 Climbing Houston Center
Mon 07:41:22 PM 29.6511 -94.9950 80° East 307 353 13,300 2,177 Climbing Houston Center
Mon 07:42:24 PM 29.6614 -94.8889 84° East 331 381 15,600 2,000 Climbing Houston Center
Mon 07:43:25 PM 29.6764 -94.7731 81° East 363 418 17,400 1,854 Climbing Houston Center
Mon 07:44:27 PM 29.6889 -94.6533 83° East 373 429 19,400 2,081 Climbing Houston Center
Mon 07:45:29 PM 29.7036 -94.5069 83° East 382 440 21,700 2,032 Climbing Houston Center
Mon 07:46:31 PM 29.7161 -94.3844 83° East 384 442 23,600 1,935 Climbing Houston Center
Mon 07:47:33 PM 29.7158 -94.2594 90° East 391 450 25,700 1,512 Climbing Houston Center
Mon 07:48:34 PM 29.6939 -94.1267 101° East 397 457 26,700 927 Climbing Houston Center
Mon 07:49:36 PM 29.6872 -93.9928 93° East 422 486 27,600 1,024 Climbing Houston Center
Mon 07:50:37 PM 29.6844 -93.8575 91° East 424 488 28,800 1,122 Climbing Houston Center
Mon 07:51:39 PM 29.6831 -93.7228 91° East 425 489 29,900 968 Climbing Houston Center
Mon 07:52:41 PM 29.6847 -93.5867 89° East 426 490 30,800 976 Climbing Houston Center
Mon 07:53:42 PM 29.7300 -93.4617 67° East 426 490 31,900 1,561 Climbing Houston Center
Mon 07:54:44 PM 29.8011 -93.3300 58° Northeast 406 467 34,000 1,597 Climbing Houston Center
Mon 07:55:46 PM 29.8542 -93.2186 61° Northeast 400 460 35,200 968 Climbing Houston Center
Mon 07:56:48 PM 29.9108 -93.1072 60° Northeast 402 463 36,000 1,024 Climbing Houston Center
Mon 07:57:49 PM 29.9683 -92.9958 59° Northeast 403 464 37,300 1,073 Climbing Houston Center
Mon 07:58:51 PM 30.0203 -92.8856 61° Northeast 399 459 38,200 726 Climbing Houston Center
Mon 07:59:53 PM 30.0769 -92.7739 60° Northeast 400 460 38,800 634 Climbing Houston Center
Mon 08:00:54 PM 30.1431 -92.6383 61° Northeast 403 464 39,500 683 Climbing Houston Center
Mon 08:01:56 PM 30.2003 -92.5253 60° Northeast 407 468 40,200 677 Climbing Houston Center
Mon 08:02:58 PM 30.2558 -92.4128 60° Northeast 407 468 40,900 387 Climbing Houston Center
Mon 08:04:00 PM 30.3133 -92.2922 61° Northeast 406 467 41,000 49 Climbing Houston Center
Mon 08:05:01 PM 30.3714 -92.1800 59° Northeast 406 467 41,000  Level Houston Center
Mon 08:06:03 PM 30.4267 -92.0622 61° Northeast 416 479 41,000  Level Houston Center
Mon 08:07:05 PM 30.4833 -91.9486 60° Northeast 415 478 41,000  Level Houston Center
Mon 08:08:06 PM 30.5389 -91.8317 61° Northeast 414 476 41,000  Level Houston Center
Mon 08:09:08 PM 30.6056 -91.6917 61° Northeast 414 476 41,000  Level Houston Center
Mon 08:10:10 PM 30.6642 -91.5761 59° Northeast 414 476 41,000  Level Houston Center
Mon 08:11:11 PM 30.7183 -91.4581 62° Northeast 415 478 41,000  Level Houston Center
Mon 08:12:13 PM 30.7750 -91.3439 60° Northeast 410 472 41,000  Level Houston Center
Mon 08:13:15 PM 30.8292 -91.2258 62° Northeast 413 475 41,000  Level Houston Center
Mon 08:14:17 PM 30.8858 -91.1103 60° Northeast 413 475 41,000  Level Houston Center
Mon 08:15:18 PM 30.9447 -90.9878 61° Northeast 419 482 41,000  Level Houston Center
Mon 08:16:20 PM 31.0100 -90.8447 62° Northeast 419 482 41,000  Level Houston Center
Mon 08:17:22 PM 31.0700 -90.7275 59° Northeast 417 480 41,000  Level Houston Center
Mon 08:18:23 PM 31.1217 -90.6067 63° Northeast 417 480 41,000  Level Houston Center
Mon 08:19:25 PM 31.1808 -90.4908 59° Northeast 414 476 41,000  Level Houston Center
Mon 08:20:26 PM 31.2339 -90.3692 63° Northeast 416 479 41,000  Level Houston Center
Mon 08:21:28 PM 31.2900 -90.2528 61° Northeast 414 476 41,000  Level Houston Center
Mon 08:22:30 PM 31.3453 -90.1317 62° Northeast 416 479 41,000  Level Houston Center
Mon 08:23:31 PM 31.4019 -90.0128 61° Northeast 417 480 41,000  Level Houston Center
Mon 08:24:33 PM 31.4561 -89.8933 62° Northeast 417 480 41,000  Level Houston Center
Mon 08:25:35 PM 31.5214 -89.7481 62° Northeast 417 480 41,000  Level Houston Center
Mon 08:26:36 PM 31.5797 -89.6283 60° Northeast 420 483 41,000  Level Houston Center
Mon 08:27:38 PM 31.6353 -89.5003 63° Northeast 422 486 41,000  Level Houston Center
Mon 08:28:10 PM 31.6583 -89.4519 61° Northeast 420 483 41,000  Level Memphis Center
Mon 08:29:12 PM 31.7172 -89.3217 62° Northeast 420 483 41,000  Level Memphis Center
Mon 08:30:13 PM 31.7742 -89.2017 61° Northeast 421 484 41,000  Level Memphis Center
Mon 08:31:15 PM 31.8344 -89.0586 64° Northeast 422 486 41,000  Level Memphis Center
Mon 08:32:17 PM 31.8911 -88.9372 61° Northeast 422 486 41,000  Level Memphis Center
Mon 08:33:18 PM 31.9469 -88.8125 62° Northeast 422 486 41,000  Level Memphis Center
Mon 08:34:20 PM 32.0033 -88.6897 62° Northeast 423 487 41,000  Level Memphis Center
Mon 08:35:22 PM 32.0575 -88.5656 63° Northeast 428 493 41,000  Level Memphis Center
Mon 08:36:23 PM 32.1128 -88.4419 62° Northeast 428 493 41,000  Level Memphis Center
Mon 08:37:25 PM 32.1794 -88.2936 62° Northeast 429 494 41,000  Level Memphis Center
Mon 08:38:26 PM 32.2353 -88.1603 64° Northeast 431 496 41,000  Level Memphis Center
Mon 08:39:28 PM 32.2931 -88.0347 61° Northeast 432 497 41,000  Level Memphis Center
Mon 08:40:30 PM 32.3483 -87.9061 63° Northeast 433 498 41,000  Level Memphis Center
Mon 08:41:31 PM 32.4194 -87.7883 54° Northeast 436 502 41,000 -98 Level Memphis Center
Mon 08:42:33 PM 32.4931 -87.6708 53° Northeast 438 504 40,800 -936 Descending Memphis Center
Mon 08:43:20 PM 32.5497 -87.5750 55° Northeast 445 512 39,300 -1,850 Descending Atlanta Center
Mon 08:44:20 PM 32.6239 -87.4544 54° Northeast 450 518 37,500 -1,650 Descending Atlanta Center
Mon 08:45:20 PM 32.6964 -87.3292 55° Northeast 455 524 36,000 -1,250 Descending Atlanta Center
Mon 08:46:20 PM 32.7725 -87.2083 53° Northeast 461 531 35,000 -1,250 Descending Atlanta Center
Mon 08:47:20 PM 32.8403 -87.0847 57° Northeast 454 522 33,500 -1,550 Descending Atlanta Center
Mon 08:48:20 PM 32.9164 -86.9611 54° Northeast 465 535 31,900 -1,750 Descending Atlanta Center
Mon 08:49:20 PM 32.9883 -86.8275 57° Northeast 465 535 30,000 -1,750 Descending Atlanta Center
Mon 08:50:20 PM 33.0375 -86.6828 68° East 465 535 28,400 -1,850 Descending Atlanta Center
Mon 08:51:20 PM 33.0800 -86.5428 70° East 459 528 26,300 -2,000 Descending Atlanta Center
Mon 08:52:20 PM 33.1186 -86.3875 73° East 464 534 24,400 -1,900 Descending Atlanta Center
Mon 08:53:20 PM 33.1814 -86.2578 60° Northeast 456 525 22,500 -1,850 Descending Atlanta Center
Mon 08:54:20 PM 33.2647 -86.1481 48° Northeast 444 511 20,700 -1,750 Descending Atlanta Center
Mon 08:55:20 PM 33.3419 -86.0306 52° Northeast 444 511 19,000 -1,650 Descending Atlanta Center
Mon 08:56:20 PM 33.4208 -85.9203 49° Northeast 444 511 17,400 -1,650 Descending Atlanta Center
Mon 08:57:20 PM 33.4975 -85.8125 50° Northeast 437 503 15,700 -1,600 Descending Atlanta Center
Mon 08:58:20 PM 33.5722 -85.7092 49° Northeast 426 490 14,200 -1,600 Descending Atlanta Center
Mon 08:59:20 PM 33.6358 -85.6206 49° Northeast 384 442 12,500 -1,800 Descending Atlanta Center
Mon 09:00:20 PM 33.6933 -85.5344 51° Northeast 350 403 10,600 -1,550 Descending Atlanta Center
Mon 09:01:20 PM 33.7464 -85.4603 49° Northeast 313 360 9,400 -1,300 Descending Atlanta Center
Mon 09:02:20 PM 33.7972 -85.3861 50° Northeast 295 339 8,000 -750 Descending Atlanta Center
Mon 09:03:20 PM 33.8483 -85.3119 50° Northeast 288 331 7,900 -50 Descending Atlanta Center
Mon 09:04:20 PM 33.9011 -85.2403 48° Northeast 283 326 7,900  Level Atlanta Center
Mon 09:05:20 PM 33.9478 -85.1581 56° Northeast 283 326 7,900  Level Atlanta Center
Mon 09:06:20 PM 33.9675 -85.0633 76° East 283 326 7,900  Level Atlanta Center
Mon 09:07:20 PM 33.9597 -84.9656 95° East 283 326 7,900 -300 Level Atlanta Center
Mon 09:08:20 PM 33.9606 -84.8778 89° East 271 312 7,300 -650 Descending Atlanta Center
Mon 09:09:20 PM 33.9653 -84.8003 86° East 255 293 6,600 -1,200 Descending Atlanta Center
Mon 09:10:20 PM 33.9656 -84.7225 90° East 238 274 4,900 -850 Descending Atlanta Center
Mon 09:11:20 PM 33.9661 -84.6475 89° East 225 259 4,900  Level Atlanta Center
Mon 09:12:20 PM 33.9683 -84.5747 88° East 220 253 4,900  Level Atlanta Center
Mon 09:14:49 PM 33.9667 -84.3833 91° East 221 254 4,900  Level Atlanta TRACON
Mon 09:15:49 PM 33.9667 -84.3000 90° East 223 257 4,900 -190 Level Atlanta TRACON
Mon 09:16:55 PM 33.9667 -84.2333 90° East 217 250 4,500 -550 Descending Atlanta TRACON
Mon 09:17:49 PM 33.9667 -84.1667 90° East 215 247 3,800 -737 Descending Atlanta TRACON
Mon 09:18:49 PM 33.9500 -84.0833 104° East 202 232 3,100 -700 Descending Atlanta TRACON

Login

Don't have an account? Register now (free) for customized features, flight alerts, and more!